LTCW Airport Information

Runway Information
Airport Frequencies
Airport Navaids
Airport Weather Information & NOTAM
ADDS - METARS form results

(1755 UTC 25 March 2019)
Data provider http://aviationweather.gov/metar/data/
 
Forecast for: LTCW (YUKSEKOVA , TR)
Text: TAF LTCW 251640Z 2518/2603 06007KT 3500 -SN BR SCT010 BKN025 OVC070
Forecast period: 1800 UTC 25 March 2019 to 0300 UTC 26 March 2019
Forecast type: FROM: standard forecast or significant change
Winds: from the ENE (60 degrees) at 8 MPH (7 knots; 3.6 m/s)
Visibility: 2.17 miles (3.49 km)
Ceiling: 2500 feet AGL
Clouds: scattered clouds at 1000 feet AGL
broken clouds at 2500 feet AGL
overcast cloud deck at 7000 feet AGL
Weather: -SN BR  (light snow, mist)
Text: TEMPO 2518/2522 1200 SN BR BKN008 OVC020
Forecast period: 1800 to 2200 UTC 25 March 2019
Forecast type: TEMPORARY: The following changes expected for less than half the time period
Visibility: 0.75 miles (1.21 km)
Ceiling: 800 feet AGL
Clouds: broken clouds at 800 feet AGL
overcast cloud deck at 2000 feet AGL
Weather: SN BR  (moderate snow, mist)
Text: TEMPO 2522/2602 1200 SN BR BKN008 OVC020
Forecast period: 2200 UTC 25 March 2019 to 0200 UTC 26 March 2019
Forecast type: TEMPORARY: The following changes expected for less than half the time period
Visibility: 0.75 miles (1.21 km)
Ceiling: 800 feet AGL
Clouds: broken clouds at 800 feet AGL
overcast cloud deck at 2000 feet AGL
Weather: SN BR  (moderate snow, mist)